Time;durP1;ratioP1;P1;durP2;ratioP2;P2;SDS_P1;SDS_P2;PMS_P1;PMS_P2;Temp;Humidity;BMP_temperature;BMP_pressure;BME280_temperature;BME280_humidity;BME280_pressure;Samples;Min_cycle;Max_cycle;Signal;HPM_P1;HPM_P2
2022/03/05 00:00:38;;;;;;;13.75;6.60;;;;;;;;;;4976559;28;20085;-81
2022/03/05 00:03:04;;;;;;;15.35;6.95;;;;;;;;;;4999585;28;20030;-82
2022/03/05 00:05:31;;;;;;;12.98;6.78;;;;;;;;;;4996172;28;20088;-82
2022/03/05 00:07:56;;;;;;;13.40;6.40;;;;;;;;;;5000068;28;20033;-82
2022/03/05 00:10:22;;;;;;;17.90;7.38;;;;;;;;;;4995829;28;20058;-82
2022/03/05 00:12:49;;;;;;;17.85;6.30;;;;;;;;;;4995347;28;20023;-81
2022/03/05 00:15:14;;;;;;;11.75;6.20;;;;;;;;;;4980371;28;20022;-82
2022/03/05 00:17:40;;;;;;;19.42;6.97;;;;;;;;;;4999544;28;20038;-82
2022/03/05 00:20:06;;;;;;;13.60;6.22;;;;;;;;;;4992771;28;20031;-81
2022/03/05 00:22:32;;;;;;;11.32;6.82;;;;;;;;;;4995889;28;20069;-82
2022/03/05 00:24:57;;;;;;;14.13;7.03;;;;;;;;;;5003302;28;20087;-81
2022/03/05 00:27:25;;;;;;;13.07;7.03;;;;;;;;;;4996620;28;20030;-82
2022/03/05 00:29:51;;;;;;;14.25;6.82;;;;;;;;;;4989693;28;20030;-81
2022/03/05 00:32:16;;;;;;;13.85;7.20;;;;;;;;;;4991176;28;20125;-82
2022/03/05 00:34:42;;;;;;;18.08;6.65;;;;;;;;;;4996598;28;20073;-81
2022/03/05 00:37:08;;;;;;;10.38;6.03;;;;;;;;;;4999112;28;20073;-81
2022/03/05 00:39:34;;;;;;;12.20;7.28;;;;;;;;;;4996520;28;20118;-81
2022/03/05 00:42:00;;;;;;;13.70;6.65;;;;;;;;;;5007849;28;20038;-79
2022/03/05 00:44:25;;;;;;;14.10;7.45;;;;;;;;;;5009025;28;20030;-80
2022/03/05 00:46:51;;;;;;;20.65;7.22;;;;;;;;;;4994107;28;20049;-79
2022/03/05 00:49:16;;;;;;;14.02;7.13;;;;;;;;;;4983376;28;20022;-80
2022/03/05 00:51:42;;;;;;;13.60;6.55;;;;;;;;;;4995650;28;20042;-81
2022/03/05 00:54:08;;;;;;;17.60;7.03;;;;;;;;;;4993719;28;20051;-81
2022/03/05 00:56:33;;;;;;;13.43;7.50;;;;;;;;;;4994694;28;20093;-81
2022/03/05 00:58:59;;;;;;;12.05;7.07;;;;;;;;;;4996599;28;20459;-82
2022/03/05 01:01:24;;;;;;;12.13;7.22;;;;;;;;;;4995045;28;20083;-81
2022/03/05 01:03:50;;;;;;;14.30;6.75;;;;;;;;;;5006149;28;20029;-82
2022/03/05 01:06:15;;;;;;;11.73;6.15;;;;;;;;;;5007174;28;20034;-80
2022/03/05 01:08:40;;;;;;;14.43;6.82;;;;;;;;;;5016855;28;20051;-81
2022/03/05 01:11:08;;;;;;;13.23;6.30;;;;;;;;;;5005945;28;20049;-82
2022/03/05 01:13:36;;;;;;;12.35;6.72;;;;;;;;;;4994114;28;20037;-81
2022/03/05 01:16:02;;;;;;;13.55;6.53;;;;;;;;;;5005218;28;20027;-79
2022/03/05 01:18:28;;;;;;;12.27;6.15;;;;;;;;;;5008249;28;20041;-80
2022/03/05 01:20:53;;;;;;;12.52;6.15;;;;;;;;;;5003095;28;20034;-81
2022/03/05 01:23:18;;;;;;;15.73;6.80;;;;;;;;;;4998358;28;20133;-81
2022/03/05 01:25:48;;;;;;;13.55;6.43;;;;;;;;;;5002913;28;20029;-81
2022/03/05 01:28:15;;;;;;;14.98;6.82;;;;;;;;;;5001677;28;20030;-80
2022/03/05 01:30:40;;;;;;;14.35;6.65;;;;;;;;;;4992063;28;20057;-80
2022/03/05 01:33:06;;;;;;;11.85;6.53;;;;;;;;;;4999920;28;20553;-80
2022/03/05 01:35:31;;;;;;;16.67;7.35;;;;;;;;;;5007607;28;20052;-81
2022/03/05 01:37:56;;;;;;;17.73;7.00;;;;;;;;;;5007480;28;20029;-79
2022/03/05 01:40:22;;;;;;;18.73;7.65;;;;;;;;;;5001942;28;20030;-82
2022/03/05 01:42:48;;;;;;;17.15;7.18;;;;;;;;;;4993011;28;20030;-81
2022/03/05 01:45:13;;;;;;;15.35;7.63;;;;;;;;;;4991837;28;20026;-81
2022/03/05 01:47:40;;;;;;;12.00;6.28;;;;;;;;;;5008620;28;20026;-79
2022/03/05 01:50:12;;;;;;;13.95;6.78;;;;;;;;;;5000152;28;20035;-79
2022/03/05 01:52:37;;;;;;;16.10;5.70;;;;;;;;;;4993718;28;20038;-80
2022/03/05 01:55:04;;;;;;;16.92;7.10;;;;;;;;;;5005101;28;20046;-81
2022/03/05 01:57:31;;;;;;;13.27;7.03;;;;;;;;;;5002223;28;20035;-80
2022/03/05 01:59:58;;;;;;;14.43;6.57;;;;;;;;;;4998828;28;20022;-80
2022/03/05 02:02:23;;;;;;;12.13;6.55;;;;;;;;;;4998482;28;20509;-82
2022/03/05 02:04:49;;;;;;;13.02;6.05;;;;;;;;;;4997666;28;20035;-81
2022/03/05 02:07:14;;;;;;;12.48;6.57;;;;;;;;;;4992463;28;20544;-80
2022/03/05 02:09:40;;;;;;;15.75;6.97;;;;;;;;;;5006561;28;20033;-82
2022/03/05 02:12:05;;;;;;;14.45;6.85;;;;;;;;;;5010092;28;20400;-81
2022/03/05 02:14:31;;;;;;;14.48;6.82;;;;;;;;;;4989148;28;20038;-80
2022/03/05 02:16:56;;;;;;;9.70;6.30;;;;;;;;;;5009439;28;20054;-80
2022/03/05 02:19:22;;;;;;;9.63;6.90;;;;;;;;;;4994264;28;20511;-80
2022/03/05 02:21:47;;;;;;;13.70;7.45;;;;;;;;;;5002193;28;20034;-79
2022/03/05 02:24:31;;;;;;;12.63;6.35;;;;;;;;;;4986664;28;20593;-80
2022/03/05 02:27:06;;;;;;;10.52;6.05;;;;;;;;;;4974950;28;20038;-80
2022/03/05 02:29:35;;;;;;;17.35;7.28;;;;;;;;;;5001986;28;20034;-81
2022/03/05 02:32:01;;;;;;;13.00;6.65;;;;;;;;;;4994979;28;20036;-81
2022/03/05 02:34:27;;;;;;;12.73;6.18;;;;;;;;;;4997908;28;20026;-81
2022/03/05 02:36:52;;;;;;;12.15;7.03;;;;;;;;;;4980466;28;20064;-81
2022/03/05 02:39:18;;;;;;;11.88;5.25;;;;;;;;;;5001145;28;20484;-80
2022/03/05 02:41:43;;;;;;;11.63;6.07;;;;;;;;;;4999393;28;20049;-81
2022/03/05 02:44:10;;;;;;;15.57;7.07;;;;;;;;;;4988565;28;20050;-80
2022/03/05 02:46:36;;;;;;;14.55;6.78;;;;;;;;;;4996391;28;20030;-80
2022/03/05 02:49:03;;;;;;;13.68;6.95;;;;;;;;;;4996507;28;20026;-82
2022/03/05 02:51:29;;;;;;;13.63;6.10;;;;;;;;;;4985639;28;20113;-80
2022/03/05 02:53:54;;;;;;;13.27;6.20;;;;;;;;;;4975966;28;20026;-80
2022/03/05 02:56:20;;;;;;;12.00;6.40;;;;;;;;;;4991531;28;20469;-80
2022/03/05 02:58:45;;;;;;;12.57;6.10;;;;;;;;;;4999731;28;20038;-80
2022/03/05 03:01:10;;;;;;;13.60;7.10;;;;;;;;;;4992627;28;20038;-80
2022/03/05 03:03:36;;;;;;;13.00;5.95;;;;;;;;;;4978047;28;20408;-81
2022/03/05 03:06:02;;;;;;;12.38;5.80;;;;;;;;;;4991116;28;20026;-80
2022/03/05 03:08:28;;;;;;;15.40;6.45;;;;;;;;;;4978801;28;20018;-80
2022/03/05 03:10:53;;;;;;;16.85;6.53;;;;;;;;;;4975715;28;20030;-80
2022/03/05 03:13:19;;;;;;;11.50;6.93;;;;;;;;;;4989139;28;20034;-81
2022/03/05 03:15:47;;;;;;;14.43;6.65;;;;;;;;;;4991253;28;20172;-80
2022/03/05 03:18:23;;;;;;;17.25;6.93;;;;;;;;;;5001640;28;20026;-80
2022/03/05 03:20:49;;;;;;;21.55;6.78;;;;;;;;;;4991096;28;20362;-79
2022/03/05 03:23:20;;;;;;;20.42;7.00;;;;;;;;;;4998312;28;20027;-81
2022/03/05 03:25:46;;;;;;;16.20;6.07;;;;;;;;;;4981285;28;20034;-80
2022/03/05 03:28:14;;;;;;;13.13;6.65;;;;;;;;;;4996705;28;20021;-79
2022/03/05 03:30:40;;;;;;;11.18;6.03;;;;;;;;;;4991852;28;20031;-80
2022/03/05 03:33:06;;;;;;;13.60;6.38;;;;;;;;;;4997722;28;20023;-79
2022/03/05 03:35:32;;;;;;;13.77;6.88;;;;;;;;;;4996703;28;20030;-80
2022/03/05 03:37:58;;;;;;;15.60;5.88;;;;;;;;;;4972929;28;20030;-80
2022/03/05 03:40:27;;;;;;;12.65;6.30;;;;;;;;;;4990803;28;20508;-79
2022/03/05 03:42:53;;;;;;;12.43;6.28;;;;;;;;;;4973398;28;20057;-80
2022/03/05 03:45:18;;;;;;;19.00;7.07;;;;;;;;;;4991703;28;20404;-80
2022/03/05 03:47:47;;;;;;;13.68;6.22;;;;;;;;;;5001313;28;20385;-80
2022/03/05 03:50:15;;;;;;;13.15;6.53;;;;;;;;;;4993432;28;20030;-79
2022/03/05 03:52:40;;;;;;;14.27;6.88;;;;;;;;;;4992250;28;20034;-79
2022/03/05 03:55:10;;;;;;;13.13;6.47;;;;;;;;;;4994911;28;20014;-80
2022/03/05 03:57:35;;;;;;;12.10;6.03;;;;;;;;;;5010793;28;20053;-81
2022/03/05 04:00:00;;;;;;;12.10;6.45;;;;;;;;;;4996544;28;20169;-82
2022/03/05 04:02:26;;;;;;;16.17;6.90;;;;;;;;;;4990979;28;20066;-80
2022/03/05 04:04:51;;;;;;;16.73;7.20;;;;;;;;;;4987268;28;20033;-81
2022/03/05 04:10:03;;;;;;;14.93;6.68;;;;;;;;;;4995283;28;20061;-81
2022/03/05 04:12:28;;;;;;;13.23;6.18;;;;;;;;;;4992562;28;20174;-81
2022/03/05 04:14:54;;;;;;;16.52;7.55;;;;;;;;;;4987932;28;20062;-80
2022/03/05 04:17:20;;;;;;;13.70;6.88;;;;;;;;;;4998826;28;20041;-81
2022/03/05 04:19:45;;;;;;;16.90;6.75;;;;;;;;;;4976655;28;20477;-81
2022/03/05 04:22:11;;;;;;;17.67;7.30;;;;;;;;;;5000203;28;20034;-81
2022/03/05 04:24:36;;;;;;;14.98;7.00;;;;;;;;;;4987778;28;20324;-81
2022/03/05 04:27:02;;;;;;;14.93;7.50;;;;;;;;;;4996796;28;20050;-81
2022/03/05 04:29:27;;;;;;;13.20;6.70;;;;;;;;;;4976283;28;20371;-81
2022/03/05 04:31:53;;;;;;;12.27;6.18;;;;;;;;;;4975736;28;20061;-80
2022/03/05 04:34:19;;;;;;;14.68;7.15;;;;;;;;;;4987800;28;20371;-80
2022/03/05 04:36:44;;;;;;;12.20;6.05;;;;;;;;;;4994991;28;20421;-81
2022/03/05 04:39:10;;;;;;;12.30;6.15;;;;;;;;;;4998258;28;20026;-81
2022/03/05 04:41:35;;;;;;;11.15;5.93;;;;;;;;;;4995566;28;20421;-81
2022/03/05 04:44:01;;;;;;;13.85;6.68;;;;;;;;;;4989735;28;20042;-80
2022/03/05 04:46:26;;;;;;;12.02;6.88;;;;;;;;;;4992438;28;20057;-80
2022/03/05 04:48:52;;;;;;;13.55;6.88;;;;;;;;;;4994831;28;20041;-81
2022/03/05 04:51:17;;;;;;;12.43;6.28;;;;;;;;;;4995464;28;20030;-81
2022/03/05 04:53:43;;;;;;;13.32;6.07;;;;;;;;;;4991058;28;20034;-80
2022/03/05 04:56:08;;;;;;;14.13;5.75;;;;;;;;;;4998646;28;20030;-81
2022/03/05 04:58:34;;;;;;;13.23;6.90;;;;;;;;;;5002577;28;20053;-80
2022/03/05 05:00:59;;;;;;;14.82;6.90;;;;;;;;;;4998148;28;20045;-80
2022/03/05 05:03:25;;;;;;;12.30;6.75;;;;;;;;;;5014304;28;20086;-80
2022/03/05 05:05:50;;;;;;;13.93;6.40;;;;;;;;;;5004038;28;20037;-80
2022/03/05 05:08:16;;;;;;;12.65;6.57;;;;;;;;;;5014582;28;20060;-80
2022/03/05 05:10:41;;;;;;;11.00;6.18;;;;;;;;;;5006312;28;20030;-80
2022/03/05 05:13:06;;;;;;;12.38;6.30;;;;;;;;;;5008686;28;20045;-80
2022/03/05 05:15:32;;;;;;;10.85;5.85;;;;;;;;;;5004038;28;20034;-80
2022/03/05 05:17:59;;;;;;;16.15;6.40;;;;;;;;;;4994822;28;20034;-80
2022/03/05 05:20:24;;;;;;;20.05;7.57;;;;;;;;;;5009274;28;20038;-81
2022/03/05 05:22:50;;;;;;;14.05;6.53;;;;;;;;;;4985477;28;20027;-80
2022/03/05 05:25:15;;;;;;;19.48;6.07;;;;;;;;;;4989467;28;20026;-81
2022/03/05 05:27:41;;;;;;;16.23;7.07;;;;;;;;;;4996824;28;20105;-80
2022/03/05 05:30:07;;;;;;;17.52;6.80;;;;;;;;;;4990071;28;20030;-81
2022/03/05 05:32:33;;;;;;;13.43;6.97;;;;;;;;;;4980302;28;20041;-80
2022/03/05 05:34:58;;;;;;;12.57;6.53;;;;;;;;;;4999429;28;20026;-80
2022/03/05 05:37:24;;;;;;;15.32;6.85;;;;;;;;;;5007618;28;20037;-80
2022/03/05 05:39:49;;;;;;;18.10;6.43;;;;;;;;;;5001975;28;20031;-80
2022/03/05 05:42:15;;;;;;;19.65;6.78;;;;;;;;;;4972877;28;20031;-80
2022/03/05 05:44:40;;;;;;;14.18;6.00;;;;;;;;;;4988598;28;20030;-81
2022/03/05 05:47:06;;;;;;;14.75;6.55;;;;;;;;;;4988610;28;20037;-80
2022/03/05 05:49:32;;;;;;;16.10;7.75;;;;;;;;;;4992889;28;20452;-80
2022/03/05 05:51:57;;;;;;;12.80;5.93;;;;;;;;;;4995521;28;20033;-81
2022/03/05 05:54:23;;;;;;;12.05;6.90;;;;;;;;;;4968193;28;20041;-80
2022/03/05 05:56:49;;;;;;;13.70;6.65;;;;;;;;;;4995107;28;20050;-80
2022/03/05 05:59:15;;;;;;;15.93;6.75;;;;;;;;;;4991402;28;20049;-80
2022/03/05 06:01:41;;;;;;;14.85;7.43;;;;;;;;;;4992896;28;20109;-81
2022/03/05 06:04:07;;;;;;;19.40;7.10;;;;;;;;;;4987329;28;20105;-80
2022/03/05 06:06:32;;;;;;;13.65;6.80;;;;;;;;;;4989479;28;20074;-80
2022/03/05 06:08:57;;;;;;;10.65;6.38;;;;;;;;;;5004733;28;20029;-80
2022/03/05 06:11:23;;;;;;;18.33;7.03;;;;;;;;;;4995799;28;20045;-81
2022/03/05 06:13:48;;;;;;;14.20;6.63;;;;;;;;;;4990771;28;20045;-80
2022/03/05 06:16:14;;;;;;;13.50;6.60;;;;;;;;;;4989801;28;20057;-80
2022/03/05 06:18:39;;;;;;;16.25;7.63;;;;;;;;;;4994902;28;20030;-80
2022/03/05 06:21:05;;;;;;;15.20;6.43;;;;;;;;;;4991948;28;20428;-80
2022/03/05 06:23:31;;;;;;;12.52;6.28;;;;;;;;;;4988979;28;20058;-81
2022/03/05 06:25:57;;;;;;;18.65;7.63;;;;;;;;;;4985082;28;20031;-81
2022/03/05 06:28:22;;;;;;;26.23;7.90;;;;;;;;;;5004052;28;20106;-81
2022/03/05 06:30:48;;;;;;;21.65;7.13;;;;;;;;;;4997867;28;20034;-80
2022/03/05 06:33:13;;;;;;;16.15;6.85;;;;;;;;;;4997404;28;20034;-81
2022/03/05 06:35:39;;;;;;;10.65;6.00;;;;;;;;;;4994901;28;20382;-81
2022/03/05 06:38:04;;;;;;;18.05;7.50;;;;;;;;;;5005903;28;20026;-81
2022/03/05 06:40:30;;;;;;;20.40;7.25;;;;;;;;;;4998178;28;20034;-82
2022/03/05 06:42:55;;;;;;;19.02;7.65;;;;;;;;;;4995751;28;20034;-81
2022/03/05 06:45:21;;;;;;;15.73;7.53;;;;;;;;;;4992155;28;20041;-82
2022/03/05 06:47:46;;;;;;;16.90;7.53;;;;;;;;;;5004806;28;20042;-81
2022/03/05 06:50:12;;;;;;;19.58;7.57;;;;;;;;;;5000886;28;20034;-82
2022/03/05 06:52:37;;;;;;;20.23;7.97;;;;;;;;;;4973089;28;20055;-82
2022/03/05 06:55:04;;;;;;;14.23;7.30;;;;;;;;;;4998709;28;20288;-81
2022/03/05 06:57:30;;;;;;;14.27;7.30;;;;;;;;;;5002597;28;20117;-81
2022/03/05 06:59:56;;;;;;;18.00;7.40;;;;;;;;;;4985019;28;20535;-82
2022/03/05 07:02:22;;;;;;;16.33;7.70;;;;;;;;;;4978000;28;20030;-81
2022/03/05 07:04:48;;;;;;;15.00;7.63;;;;;;;;;;4991579;28;20027;-82
2022/03/05 07:07:13;;;;;;;16.48;8.05;;;;;;;;;;5001875;28;20034;-82
2022/03/05 07:09:39;;;;;;;13.90;7.68;;;;;;;;;;4999264;28;20029;-82
2022/03/05 07:12:05;;;;;;;18.17;7.70;;;;;;;;;;4992695;28;20480;-82
2022/03/05 07:14:31;;;;;;;15.30;7.57;;;;;;;;;;4991649;28;20422;-82
2022/03/05 07:16:56;;;;;;;15.30;8.48;;;;;;;;;;5000653;28;20045;-82
2022/03/05 07:19:22;;;;;;;15.18;8.13;;;;;;;;;;4998171;28;20045;-82
2022/03/05 07:21:47;;;;;;;16.20;8.60;;;;;;;;;;5003398;28;20444;-82
2022/03/05 07:24:13;;;;;;;14.85;8.52;;;;;;;;;;4992866;28;20030;-82
2022/03/05 07:26:38;;;;;;;15.43;8.73;;;;;;;;;;4997068;28;20061;-82
2022/03/05 07:29:05;;;;;;;16.95;8.98;;;;;;;;;;4984378;28;20062;-82
2022/03/05 07:31:30;;;;;;;15.38;8.77;;;;;;;;;;4985134;28;20026;-83
2022/03/05 07:33:56;;;;;;;14.27;9.00;;;;;;;;;;4995727;28;20109;-82
2022/03/05 07:36:21;;;;;;;22.75;10.35;;;;;;;;;;5001957;28;20034;-84
2022/03/05 07:38:46;;;;;;;17.98;9.48;;;;;;;;;;4977989;28;20099;-84
2022/03/05 07:41:13;;;;;;;17.73;9.00;;;;;;;;;;4989559;28;20093;-83
2022/03/05 07:43:39;;;;;;;22.98;9.93;;;;;;;;;;4988697;28;20030;-83
2022/03/05 07:46:05;;;;;;;17.17;9.57;;;;;;;;;;4994713;28;20480;-82
2022/03/05 07:48:33;;;;;;;15.40;8.93;;;;;;;;;;5000868;28;20073;-83
2022/03/05 07:51:00;;;;;;;17.35;9.10;;;;;;;;;;4993282;28;20110;-85
2022/03/05 07:53:31;;;;;;;15.75;8.77;;;;;;;;;;4980904;28;20030;-83
2022/03/05 07:55:57;;;;;;;20.13;9.60;;;;;;;;;;4998955;28;20025;-83
2022/03/05 07:58:23;;;;;;;17.02;9.73;;;;;;;;;;5001280;28;20039;-81
2022/03/05 08:00:48;;;;;;;17.17;9.63;;;;;;;;;;4993577;28;20034;-84
2022/03/05 08:03:14;;;;;;;19.73;9.63;;;;;;;;;;4998687;28;20030;-85
2022/03/05 08:05:41;;;;;;;22.60;11.45;;;;;;;;;;4988958;28;20396;-85
2022/03/05 08:08:06;;;;;;;19.35;9.40;;;;;;;;;;5003396;28;20018;-84
2022/03/05 08:10:32;;;;;;;14.80;9.07;;;;;;;;;;5009741;28;20032;-84
2022/03/05 08:12:57;;;;;;;16.40;9.57;;;;;;;;;;5014414;28;20033;-84
2022/03/05 08:15:23;;;;;;;15.82;9.25;;;;;;;;;;5003800;28;20045;-83
2022/03/05 08:17:53;;;;;;;18.10;9.93;;;;;;;;;;4994563;28;20019;-84
2022/03/05 08:20:19;;;;;;;18.35;10.00;;;;;;;;;;5005713;28;20029;-84
2022/03/05 08:22:45;;;;;;;19.90;10.45;;;;;;;;;;5009507;28;20443;-82
2022/03/05 08:25:12;;;;;;;19.73;10.93;;;;;;;;;;5001607;28;20036;-81
2022/03/05 08:27:38;;;;;;;18.75;10.15;;;;;;;;;;5003037;28;20015;-83
2022/03/05 08:30:04;;;;;;;17.10;9.10;;;;;;;;;;4986902;28;20605;-83
2022/03/05 08:32:29;;;;;;;26.27;9.55;;;;;;;;;;5002351;28;20052;-83
2022/03/05 08:34:55;;;;;;;17.02;9.50;;;;;;;;;;4996934;28;20029;-83
2022/03/05 08:37:20;;;;;;;23.58;10.30;;;;;;;;;;5001334;28;20034;-82
2022/03/05 08:39:45;;;;;;;18.67;9.68;;;;;;;;;;4989541;28;20050;-82
2022/03/05 08:42:11;;;;;;;20.00;9.90;;;;;;;;;;5004164;28;20038;-83
2022/03/05 08:44:36;;;;;;;18.42;9.20;;;;;;;;;;4999636;28;20017;-81
2022/03/05 08:47:02;;;;;;;16.15;8.38;;;;;;;;;;5011320;28;20156;-80
2022/03/05 08:49:27;;;;;;;16.85;9.25;;;;;;;;;;5009984;28;20519;-81
2022/03/05 08:51:53;;;;;;;19.52;10.05;;;;;;;;;;4998851;28;20026;-83
2022/03/05 08:54:20;;;;;;;20.15;9.15;;;;;;;;;;5001950;28;20030;-81
2022/03/05 08:56:46;;;;;;;19.27;9.25;;;;;;;;;;5001884;28;20077;-82
2022/03/05 08:59:11;;;;;;;18.48;9.02;;;;;;;;;;4977242;28;20489;-82
2022/03/05 09:01:37;;;;;;;18.58;9.90;;;;;;;;;;4999646;28;20034;-82
2022/03/05 09:04:03;;;;;;;17.60;8.90;;;;;;;;;;4976532;28;20034;-81
2022/03/05 09:06:30;;;;;;;15.85;8.77;;;;;;;;;;4990058;28;20030;-83
2022/03/05 09:08:57;;;;;;;17.73;8.50;;;;;;;;;;4997084;28;20493;-82
2022/03/05 09:11:22;;;;;;;17.92;9.15;;;;;;;;;;4972217;28;20121;-83
2022/03/05 09:13:47;;;;;;;13.68;7.38;;;;;;;;;;4992175;28;20691;-81
2022/03/05 09:16:13;;;;;;;17.10;8.80;;;;;;;;;;4977611;28;20022;-81
2022/03/05 09:18:38;;;;;;;16.30;9.65;;;;;;;;;;4972120;28;20030;-81
2022/03/05 09:21:04;;;;;;;16.25;8.95;;;;;;;;;;4990748;28;20058;-81
2022/03/05 09:23:29;;;;;;;16.38;8.90;;;;;;;;;;4988152;28;20405;-82
2022/03/05 09:25:54;;;;;;;12.88;6.85;;;;;;;;;;4989990;28;20069;-81
2022/03/05 09:28:20;;;;;;;17.02;7.75;;;;;;;;;;4992382;28;20052;-81
2022/03/05 09:30:45;;;;;;;10.60;6.85;;;;;;;;;;4992308;28;20038;-81
2022/03/05 09:33:11;;;;;;;13.88;7.55;;;;;;;;;;4990378;28;20035;-81
2022/03/05 09:35:38;;;;;;;18.67;8.30;;;;;;;;;;4974535;28;20109;-82
2022/03/05 09:38:04;;;;;;;13.98;8.05;;;;;;;;;;4974411;28;20096;-82
2022/03/05 09:40:29;;;;;;;12.73;7.28;;;;;;;;;;4992513;28;20121;-81
2022/03/05 09:42:55;;;;;;;16.38;7.80;;;;;;;;;;4991720;28;20030;-82
2022/03/05 09:45:21;;;;;;;12.77;6.70;;;;;;;;;;4987962;28;20037;-82
2022/03/05 09:47:47;;;;;;;12.88;6.80;;;;;;;;;;4988124;28;20042;-83
2022/03/05 09:50:13;;;;;;;12.82;7.05;;;;;;;;;;4990018;28;20038;-82
2022/03/05 09:52:38;;;;;;;11.07;6.18;;;;;;;;;;4987875;28;20030;-83
2022/03/05 09:55:05;;;;;;;11.88;6.25;;;;;;;;;;4972504;28;20492;-82
2022/03/05 09:57:30;;;;;;;14.60;7.55;;;;;;;;;;4987328;28;20026;-82
2022/03/05 09:59:55;;;;;;;11.82;6.68;;;;;;;;;;4990543;28;21687;-83
2022/03/05 10:02:21;;;;;;;15.25;7.20;;;;;;;;;;4993377;28;20105;-83
2022/03/05 10:04:46;;;;;;;15.15;6.43;;;;;;;;;;4993833;28;20057;-83
2022/03/05 10:07:14;;;;;;;13.23;6.50;;;;;;;;;;4977491;28;20041;-83
2022/03/05 10:09:42;;;;;;;12.25;6.32;;;;;;;;;;4979197;28;20057;-81
2022/03/05 10:12:31;;;;;;;13.27;6.97;;;;;;;;;;4995897;28;20472;-83
2022/03/05 10:15:13;;;;;;;10.20;4.85;;;;;;;;;;4996705;28;20125;-86
2022/03/05 10:17:48;;;;;;;14.73;6.45;;;;;;;;;;4976089;28;20027;-80
2022/03/05 10:20:14;;;;;;;8.73;5.40;;;;;;;;;;4977990;28;20331;-81
2022/03/05 10:22:59;;;;;;;17.15;6.00;;;;;;;;;;4995804;28;20057;-81
2022/03/05 10:25:34;;;;;;;13.80;6.05;;;;;;;;;;4995160;28;20030;-81
2022/03/05 10:28:02;;;;;;;18.63;6.38;;;;;;;;;;4992049;28;20037;-83
2022/03/05 10:30:42;;;;;;;10.38;5.57;;;;;;;;;;4977994;28;20030;-83
2022/03/05 10:33:21;;;;;;;10.85;6.10;;;;;;;;;;4995333;28;20511;-81
2022/03/05 10:35:47;;;;;;;12.60;5.55;;;;;;;;;;4995968;28;20433;-81
2022/03/05 10:38:12;;;;;;;10.50;5.72;;;;;;;;;;4993719;28;20742;-81
2022/03/05 10:40:37;;;;;;;13.30;7.00;;;;;;;;;;4978119;28;20084;-81
2022/03/05 10:43:06;;;;;;;11.60;6.20;;;;;;;;;;4978606;28;20116;-82
2022/03/05 10:45:55;;;;;;;10.30;6.15;;;;;;;;;;4996235;28;20030;-81
2022/03/05 10:48:29;;;;;;;10.63;4.68;;;;;;;;;;4992919;28;20023;-80
2022/03/05 10:51:09;;;;;;;10.73;5.53;;;;;;;;;;4995449;28;20030;-83
2022/03/05 10:53:47;;;;;;;11.63;5.97;;;;;;;;;;4995558;28;20034;-80
2022/03/05 10:56:33;;;;;;;9.40;5.50;;;;;;;;;;4996437;28;20050;-81
2022/03/05 10:59:03;;;;;;;8.30;4.90;;;;;;;;;;4976616;28;20057;-81
2022/03/05 11:01:29;;;;;;;10.77;6.13;;;;;;;;;;4996666;28;20045;-81
2022/03/05 11:03:55;;;;;;;11.52;5.53;;;;;;;;;;4979091;28;20037;-81
2022/03/05 11:06:22;;;;;;;11.80;6.20;;;;;;;;;;4996048;28;20038;-80
2022/03/05 11:08:50;;;;;;;9.20;5.22;;;;;;;;;;4992396;28;20103;-81
2022/03/05 11:11:17;;;;;;;10.05;5.28;;;;;;;;;;4977522;28;20519;-81
2022/03/05 11:13:43;;;;;;;9.32;5.13;;;;;;;;;;4984608;28;20065;-80
2022/03/05 11:16:10;;;;;;;11.75;5.82;;;;;;;;;;4994607;28;20049;-81
2022/03/05 11:18:36;;;;;;;11.57;5.78;;;;;;;;;;4992864;28;20026;-81
2022/03/05 11:21:02;;;;;;;6.47;4.47;;;;;;;;;;4995152;28;20113;-81
2022/03/05 11:23:28;;;;;;;9.60;6.30;;;;;;;;;;4991865;28;20027;-81
2022/03/05 11:25:54;;;;;;;10.02;5.38;;;;;;;;;;5009753;28;20156;-81
2022/03/05 11:28:21;;;;;;;10.13;6.15;;;;;;;;;;4989605;28;20503;-81
2022/03/05 11:30:46;;;;;;;8.60;5.60;;;;;;;;;;4995764;28;20026;-81
2022/03/05 11:33:13;;;;;;;17.30;6.78;;;;;;;;;;4979427;28;20044;-82
2022/03/05 11:35:56;;;;;;;11.73;6.45;;;;;;;;;;4989994;28;20099;-80
2022/03/05 11:38:33;;;;;;;11.02;6.05;;;;;;;;;;4996012;28;20022;-81
2022/03/05 11:40:59;;;;;;;12.80;5.38;;;;;;;;;;4982065;28;20144;-85
2022/03/05 11:43:26;;;;;;;8.68;5.30;;;;;;;;;;4980550;28;20058;-81
2022/03/05 11:46:04;;;;;;;11.45;5.63;;;;;;;;;;4990047;28;20027;-80
2022/03/05 11:48:36;;;;;;;8.48;5.25;;;;;;;;;;4996645;28;20081;-81
2022/03/05 11:51:10;;;;;;;;;;;;;;;;;;4995744;28;20030;-81
2022/03/05 11:53:36;;;;;;;12.35;6.13;;;;;;;;;;4990014;28;19914;-82
2022/03/05 11:56:24;;;;;;;10.60;5.40;;;;;;;;;;4989078;28;20026;-80
2022/03/05 11:58:50;;;;;;;10.52;5.55;;;;;;;;;;4986320;28;20097;-81
2022/03/05 12:01:36;;;;;;;11.20;5.95;;;;;;;;;;4990012;28;20492;-80
2022/03/05 12:04:19;;;;;;;9.45;5.88;;;;;;;;;;4971232;28;20052;-80
2022/03/05 12:06:51;;;;;;;13.38;6.10;;;;;;;;;;4998701;28;20054;-82
2022/03/05 12:09:52;;;;;;;12.50;6.57;;;;;;;;;;4993634;28;20030;-84
2022/03/05 12:12:18;;;;;;;9.85;5.55;;;;;;;;;;4991418;28;20034;-80
2022/03/05 12:14:59;;;;;;;10.65;5.55;;;;;;;;;;4979003;28;20030;-79
2022/03/05 12:17:30;;;;;;;11.98;6.43;;;;;;;;;;4995588;28;20042;-81
2022/03/05 12:19:55;;;;;;;12.05;6.40;;;;;;;;;;4984479;28;20030;-80
2022/03/05 12:22:21;;;;;;;10.63;6.30;;;;;;;;;;4991894;28;20038;-80
2022/03/05 12:24:46;;;;;;;12.65;6.10;;;;;;;;;;4992857;28;20370;-81
2022/03/05 12:27:16;;;;;;;10.35;5.82;;;;;;;;;;4991788;28;20058;-79
2022/03/05 12:29:52;;;;;;;12.43;6.35;;;;;;;;;;4992808;28;20022;-79
2022/03/05 12:32:19;;;;;;;10.40;6.30;;;;;;;;;;4986283;28;20521;-80
2022/03/05 12:34:45;;;;;;;12.60;6.10;;;;;;;;;;4981635;28;20134;-81
2022/03/05 12:37:10;;;;;;;8.45;4.97;;;;;;;;;;4973559;28;20062;-80
2022/03/05 12:39:43;;;;;;;10.48;5.88;;;;;;;;;;5004153;28;20361;-82
2022/03/05 12:42:11;;;;;;;9.73;4.75;;;;;;;;;;4993327;28;20521;-81
2022/03/05 12:44:39;;;;;;;9.50;5.40;;;;;;;;;;4962497;28;20122;-81
2022/03/05 12:47:06;;;;;;;8.85;5.35;;;;;;;;;;4994855;28;20493;-86
2022/03/05 12:49:31;;;;;;;7.88;4.28;;;;;;;;;;5001035;28;20105;-81
2022/03/05 12:51:57;;;;;;;7.07;4.18;;;;;;;;;;4990102;28;20053;-82
2022/03/05 12:54:22;;;;;;;9.35;4.50;;;;;;;;;;4983162;28;20447;-81
2022/03/05 12:56:54;;;;;;;7.82;4.40;;;;;;;;;;4990167;28;20019;-81
2022/03/05 12:59:19;;;;;;;11.07;5.97;;;;;;;;;;4991932;28;20097;-81
2022/03/05 13:01:48;;;;;;;9.38;4.93;;;;;;;;;;5003582;28;20025;-81
2022/03/05 13:04:16;;;;;;;10.98;5.05;;;;;;;;;;4993170;28;20056;-80
2022/03/05 13:06:45;;;;;;;6.22;3.97;;;;;;;;;;4992153;28;20571;-82
2022/03/05 13:09:17;;;;;;;9.15;5.05;;;;;;;;;;4972425;28;20057;-79
2022/03/05 13:11:49;;;;;;;7.57;4.53;;;;;;;;;;5008945;28;20479;-85
2022/03/05 13:14:20;;;;;;;8.10;4.47;;;;;;;;;;4999585;28;20296;-81
2022/03/05 13:16:49;;;;;;;7.60;4.55;;;;;;;;;;4982720;28;20033;-79
2022/03/05 13:19:15;;;;;;;8.88;5.00;;;;;;;;;;5000392;28;20658;-79
2022/03/05 13:21:44;;;;;;;11.15;5.15;;;;;;;;;;5007248;28;20031;-80
2022/03/05 13:24:12;;;;;;;7.28;4.38;;;;;;;;;;5021253;28;20037;-80
2022/03/05 13:26:40;;;;;;;8.02;4.90;;;;;;;;;;4991564;28;20046;-80
2022/03/05 13:29:07;;;;;;;8.43;4.88;;;;;;;;;;5006280;28;20086;-80
2022/03/05 13:31:33;;;;;;;9.75;5.28;;;;;;;;;;5006189;28;20108;-79
2022/03/05 13:33:59;;;;;;;7.57;4.38;;;;;;;;;;4989793;28;20026;-79
2022/03/05 13:36:27;;;;;;;7.82;4.88;;;;;;;;;;5022887;28;20088;-80
2022/03/05 13:39:23;;;;;;;8.23;4.75;;;;;;;;;;4994825;28;20048;-80
2022/03/05 13:41:54;;;;;;;9.00;5.22;;;;;;;;;;4987137;28;20023;-82
2022/03/05 13:44:39;;;;;;;9.07;5.20;;;;;;;;;;4996859;28;20459;-79
2022/03/05 13:47:06;;;;;;;8.65;5.18;;;;;;;;;;5005140;28;20725;-81
2022/03/05 13:49:32;;;;;;;6.93;4.63;;;;;;;;;;5017550;28;20040;-79
2022/03/05 13:51:59;;;;;;;9.20;5.13;;;;;;;;;;4985648;28;20042;-80
2022/03/05 13:54:38;;;;;;;10.85;5.30;;;;;;;;;;4995812;28;20030;-82
2022/03/05 13:57:05;;;;;;;10.75;5.65;;;;;;;;;;4985480;28;20030;-82
2022/03/05 13:59:42;;;;;;;9.48;5.15;;;;;;;;;;5009212;28;20030;-80
2022/03/05 14:02:09;;;;;;;8.38;3.22;;;;;;;;;;4992814;28;20026;-80
2022/03/05 14:05:09;;;;;;;10.63;5.28;;;;;;;;;;5015399;28;20041;-83
2022/03/05 14:07:40;;;;;;;9.07;4.93;;;;;;;;;;4982129;28;20077;-82
2022/03/05 14:10:10;;;;;;;8.27;4.70;;;;;;;;;;5002974;28;20022;-87
2022/03/05 14:12:36;;;;;;;8.45;4.85;;;;;;;;;;4988627;28;20118;-79
2022/03/05 14:15:06;;;;;;;14.13;6.28;;;;;;;;;;5000283;28;20093;-82
2022/03/05 14:17:31;;;;;;;9.70;5.80;;;;;;;;;;4996398;28;20091;-82
2022/03/05 14:20:18;;;;;;;11.82;5.18;;;;;;;;;;4979501;28;20030;-83
2022/03/05 14:23:03;;;;;;;9.52;4.85;;;;;;;;;;4995312;28;20018;-81
2022/03/05 14:25:31;;;;;;;8.02;4.55;;;;;;;;;;4991482;28;20031;-83
2022/03/05 14:27:58;;;;;;;9.27;4.97;;;;;;;;;;4998691;28;20053;-82
2022/03/05 14:30:26;;;;;;;8.80;5.05;;;;;;;;;;4997555;28;20029;-82
2022/03/05 14:32:52;;;;;;;8.77;4.97;;;;;;;;;;5002449;28;20026;-82
2022/03/05 14:35:17;;;;;;;10.40;4.18;;;;;;;;;;5014393;28;20022;-84